Time;durP1;ratioP1;P1;durP2;ratioP2;P2;SDS_P1;SDS_P2;PMS_P1;PMS_P2;Temp;Humidity;BMP_temperature;BMP_pressure;BME280_temperature;BME280_humidity;BME280_pressure;Samples;Min_cycle;Max_cycle;Signal;HPM_P1;HPM_P2
2023/10/10 00:02:19;;;;;;;17.23;4.20;;;16.60;52.80;;;;;;5073443;28;20201;-87
2023/10/10 00:04:49;;;;;;;13.68;4.13;;;16.60;52.90;;;;;;5089257;28;20736;-87
2023/10/10 00:07:17;;;;;;;14.13;4.07;;;16.50;53.70;;;;;;5080965;28;20271;-87
2023/10/10 00:09:45;;;;;;;15.77;4.43;;;16.40;55.60;;;;;;5082557;28;20228;-87
2023/10/10 00:12:18;;;;;;;16.48;4.18;;;16.40;55.40;;;;;;5086951;28;20192;-87
2023/10/10 00:14:49;;;;;;;20.42;4.18;;;16.30;56.20;;;;;;5095024;28;20192;-87
2023/10/10 00:17:17;;;;;;;15.20;4.57;;;16.20;56.50;;;;;;5088388;28;20196;-87
2023/10/10 00:19:54;;;;;;;17.67;4.57;;;16.20;56.90;;;;;;5080466;28;20258;-87
2023/10/10 00:22:33;;;;;;;11.85;4.15;;;16.10;59.40;;;;;;5088509;28;20231;-87
2023/10/10 00:25:04;;;;;;;18.15;4.47;;;16.20;59.60;;;;;;5080098;28;20191;-87
2023/10/10 00:27:32;;;;;;;11.93;4.40;;;16.10;60.30;;;;;;5084840;28;20666;-87
2023/10/10 00:30:00;;;;;;;15.70;4.90;;;16.00;60.70;;;;;;5086723;28;20700;-87
2023/10/10 00:32:29;;;;;;;17.70;4.80;;;16.00;61.50;;;;;;5090481;28;20231;-87
2023/10/10 00:34:56;;;;;;;23.67;5.43;;;16.00;61.80;;;;;;5090613;28;20460;-87
2023/10/10 00:37:29;;;;;;;16.10;5.03;;;15.90;62.70;;;;;;5088939;28;20193;-87
2023/10/10 00:40:02;;;;;;;13.05;4.43;;;15.90;62.90;;;;;;5082075;28;20204;-87
2023/10/10 00:42:37;;;;;;;17.95;4.60;;;15.80;62.90;;;;;;5087515;28;20575;-87
2023/10/10 00:45:09;;;;;;;16.98;4.50;;;15.90;66.10;;;;;;5085148;28;20588;-87
2023/10/10 00:47:40;;;;;;;15.98;4.90;;;15.90;65.60;;;;;;5081394;28;20702;-87
2023/10/10 00:50:14;;;;;;;13.20;3.80;;;15.80;65.20;;;;;;5090908;28;20232;-87
2023/10/10 00:52:44;;;;;;;11.90;4.25;;;15.70;65.60;;;;;;5085885;28;20191;-87
2023/10/10 00:55:12;;;;;;;14.80;4.28;;;15.70;69.00;;;;;;5092066;28;20221;-87
2023/10/10 00:57:40;;;;;;;11.48;4.68;;;15.70;70.10;;;;;;5082812;28;20193;-87
2023/10/10 01:00:10;;;;;;;12.23;4.47;;;15.70;70.10;;;;;;5086530;28;20203;-87
2023/10/10 01:02:38;;;;;;;15.23;4.32;;;15.70;70.40;;;;;;5077049;28;20822;-87
2023/10/10 01:05:12;;;;;;;14.88;4.38;;;15.60;70.00;;;;;;5091119;28;20196;-87
2023/10/10 01:07:39;;;;;;;15.10;4.80;;;15.50;71.20;;;;;;5093467;28;20207;-87
2023/10/10 01:10:13;;;;;;;11.20;4.28;;;15.50;72.10;;;;;;5081422;28;20570;-87
2023/10/10 01:12:41;;;;;;;16.25;4.43;;;15.40;72.90;;;;;;5084000;28;20262;-87
2023/10/10 01:15:14;;;;;;;10.48;3.95;;;15.40;74.10;;;;;;5085318;28;20192;-87
2023/10/10 01:17:44;;;;;;;11.20;4.30;;;15.40;74.50;;;;;;5087396;28;20193;-87
2023/10/10 01:20:17;;;;;;;17.48;4.60;;;15.30;75.30;;;;;;5112391;27;20203;-87
2023/10/10 01:22:47;;;;;;;17.42;4.65;;;15.20;75.40;;;;;;5089647;28;20207;-87
2023/10/10 01:28:06;;;;;;;12.93;4.63;;;15.10;77.40;;;;;;5071826;28;20221;-87
2023/10/10 01:30:56;;;;;;;15.38;4.65;;;15.00;77.30;;;;;;5083146;28;20185;-87
2023/10/10 01:33:25;;;;;;;19.20;4.45;;;15.00;77.30;;;;;;5089757;28;20966;-87
2023/10/10 01:35:55;;;;;;;11.90;4.38;;;15.00;77.30;;;;;;5093850;28;20220;-86
2023/10/10 01:38:59;;;;;;;13.95;4.50;;;15.00;77.30;;;;;;5085740;28;21071;-87
2023/10/10 01:41:33;;;;;;;19.35;4.53;;;15.00;77.90;;;;;;5082033;28;20185;-87
2023/10/10 01:44:11;;;;;;;14.88;4.47;;;15.00;78.60;;;;;;5080660;28;20234;-87
2023/10/10 01:46:40;;;;;;;12.55;4.20;;;14.90;77.60;;;;;;5079981;28;20245;-87
2023/10/10 01:49:13;;;;;;;20.65;4.95;;;14.90;77.50;;;;;;5077913;28;20198;-87
2023/10/10 01:51:42;;;;;;;12.35;4.70;;;14.80;78.30;;;;;;5083723;28;20251;-87
2023/10/10 01:54:18;;;;;;;14.40;4.40;;;14.80;78.90;;;;;;5069800;28;20246;-87
2023/10/10 01:56:46;;;;;;;14.18;4.68;;;14.80;79.10;;;;;;5076857;28;20201;-87
2023/10/10 01:59:19;;;;;;;17.15;5.03;;;14.80;79.80;;;;;;5083689;28;20568;-87
2023/10/10 02:01:46;;;;;;;15.43;4.53;;;14.80;79.70;;;;;;5072810;28;20297;-87
2023/10/10 02:04:14;;;;;;;17.13;4.43;;;14.80;79.60;;;;;;5082189;28;20196;-87
2023/10/10 02:06:45;;;;;;;15.15;4.90;;;14.70;79.80;;;;;;5088333;28;20740;-87
2023/10/10 02:09:26;;;;;;;13.48;4.50;;;14.70;80.40;;;;;;5087929;28;20208;-87
2023/10/10 02:11:54;;;;;;;12.63;4.75;;;14.70;81.00;;;;;;5087794;28;20228;-87
2023/10/10 02:14:25;;;;;;;14.88;5.05;;;14.60;81.20;;;;;;5096605;28;20201;-87
2023/10/10 02:16:54;;;;;;;13.07;4.50;;;14.60;81.80;;;;;;5088046;28;20279;-87
2023/10/10 02:19:32;;;;;;;14.85;4.70;;;14.60;82.90;;;;;;5088006;28;20215;-87
2023/10/10 02:22:23;;;;;;;12.25;4.72;;;14.60;82.40;;;;;;5083665;28;20192;-87
2023/10/10 02:25:36;;;;;;;21.08;4.88;;;14.50;82.50;;;;;;5078409;28;20220;-87
2023/10/10 02:27:54;;;;;;;15.48;4.72;;;14.50;83.70;;;;;;5087506;28;20280;-87
2023/10/10 02:30:34;;;;;;;12.68;4.45;;;14.40;83.20;;;;;;5075393;28;20190;-87
2023/10/10 02:33:12;;;;;;;18.33;5.25;;;14.40;83.60;;;;;;5082689;28;20583;-87
2023/10/10 02:35:54;;;;;;;13.45;4.47;;;14.40;84.40;;;;;;5096573;28;20629;-87
2023/10/10 02:38:23;;;;;;;17.85;4.90;;;14.30;84.80;;;;;;5098117;28;20667;-87
2023/10/10 02:40:55;;;;;;;13.48;4.35;;;14.40;85.30;;;;;;5085714;28;20212;-87
2023/10/10 02:43:45;;;;;;;13.00;4.75;;;14.30;85.50;;;;;;5090176;28;20667;-87
2023/10/10 02:46:17;;;;;;;18.02;4.80;;;14.30;86.60;;;;;;5096070;28;20207;-87
2023/10/10 02:48:44;;;;;;;19.13;4.65;;;14.20;88.10;;;;;;5095657;28;20533;-87
2023/10/10 02:51:15;;;;;;;12.10;4.22;;;14.20;87.50;;;;;;5098696;28;20225;-87
2023/10/10 02:53:46;;;;;;;11.85;4.68;;;14.20;87.90;;;;;;5082059;28;20217;-87
2023/10/10 02:56:18;;;;;;;13.43;4.18;;;14.20;88.50;;;;;;5094139;28;20188;-86
2023/10/10 02:58:47;;;;;;;15.77;4.97;;;14.10;88.70;;;;;;5090985;28;20194;-87
2023/10/10 03:01:49;;;;;;;15.00;4.90;;;14.10;89.10;;;;;;5093641;28;20228;-87
2023/10/10 03:04:08;;;;;;;15.05;5.03;;;14.10;89.30;;;;;;5093968;28;20915;-87
2023/10/10 03:06:35;;;;;;;11.43;5.30;;;14.00;90.00;;;;;;5087439;28;20192;-87
2023/10/10 03:09:13;;;;;;;17.63;4.70;;;14.10;90.10;;;;;;5082724;28;20193;-87
2023/10/10 03:11:53;;;;;;;13.73;5.05;;;14.00;90.40;;;;;;5091105;28;20206;-86
2023/10/10 03:14:28;;;;;;;14.20;4.97;;;13.90;90.70;;;;;;5092215;28;20250;-87
2023/10/10 03:17:09;;;;;;;15.88;4.90;;;13.90;90.90;;;;;;5107749;27;20283;-87
2023/10/10 03:19:39;;;;;;;15.05;4.60;;;13.80;91.20;;;;;;5088365;28;20202;-86
2023/10/10 03:22:28;;;;;;;18.77;5.03;;;13.80;91.20;;;;;;5087343;28;20231;-87
2023/10/10 03:25:07;;;;;;;18.10;4.88;;;13.90;91.20;;;;;;5085459;28;20205;-86
2023/10/10 03:27:53;;;;;;;14.23;4.90;;;13.90;91.50;;;;;;5089472;28;20217;-87
2023/10/10 03:30:34;;;;;;;12.35;4.63;;;13.80;91.20;;;;;;5079418;28;20205;-86
2023/10/10 03:33:08;;;;;;;15.18;4.57;;;13.70;91.50;;;;;;5086457;28;20189;-87
2023/10/10 03:38:43;;;;;;;13.98;4.78;;;13.50;92.10;;;;;;5077409;28;20209;-87
2023/10/10 03:41:26;;;;;;;17.15;5.03;;;13.50;92.30;;;;;;5114340;27;20204;-86
2023/10/10 05:25:51;;;;;;;18.17;6.88;;;12.20;96.50;;;;;;5080652;28;20567;-86
2023/10/10 05:28:19;;;;;;;19.48;7.65;;;12.20;96.70;;;;;;5084423;28;20263;-86
2023/10/10 05:30:47;;;;;;;17.88;7.05;;;12.10;96.80;;;;;;5074674;28;20201;-86
2023/10/10 05:33:19;;;;;;;15.60;7.25;;;12.10;96.90;;;;;;5080530;28;20283;-88
2023/10/10 05:35:48;;;;;;;20.95;6.70;;;12.10;97.10;;;;;;5082687;28;20549;-87
2023/10/10 05:38:16;;;;;;;16.85;6.45;;;12.10;97.20;;;;;;5083138;28;20196;-87
2023/10/10 05:40:46;;;;;;;17.15;7.05;;;12.10;97.20;;;;;;5082062;28;20200;-87
2023/10/10 05:43:16;;;;;;;15.10;7.00;;;12.10;97.20;;;;;;5072292;28;20196;-87
2023/10/10 05:45:43;;;;;;;20.02;6.63;;;12.20;97.30;;;;;;5085690;28;20205;-89
2023/10/10 05:48:11;;;;;;;16.70;6.43;;;12.20;97.30;;;;;;5099777;28;20599;-86
2023/10/10 05:50:40;;;;;;;17.65;6.38;;;12.20;97.40;;;;;;5084529;28;20223;-86
2023/10/10 05:53:07;;;;;;;12.70;6.18;;;12.20;97.50;;;;;;5095958;28;20201;-86
2023/10/10 05:55:37;;;;;;;19.60;6.25;;;12.30;97.50;;;;;;5090821;28;20669;-86
2023/10/10 05:58:05;;;;;;;15.07;5.68;;;12.40;97.10;;;;;;5080312;28;20208;-86
2023/10/10 06:00:36;;;;;;;13.43;6.65;;;12.50;97.00;;;;;;5087250;28;20200;-86
2023/10/10 06:03:05;;;;;;;16.00;6.05;;;12.60;96.80;;;;;;5083458;28;20228;-86
2023/10/10 06:05:33;;;;;;;18.02;6.50;;;12.60;96.90;;;;;;5079134;28;20190;-86
2023/10/10 06:08:01;;;;;;;17.30;5.90;;;12.60;96.90;;;;;;5077253;28;20218;-86
2023/10/10 06:10:31;;;;;;;18.13;5.88;;;12.60;97.00;;;;;;5088182;28;20189;-87
2023/10/10 06:13:03;;;;;;;14.38;6.07;;;12.50;97.00;;;;;;5093049;28;20261;-85
2023/10/10 06:15:33;;;;;;;14.05;5.90;;;12.60;97.20;;;;;;5082793;28;20188;-86
2023/10/10 06:18:08;;;;;;;15.80;5.72;;;12.70;97.10;;;;;;5088244;28;20204;-86
2023/10/10 06:20:40;;;;;;;21.70;5.50;;;12.90;96.70;;;;;;5092032;28;20227;-86
2023/10/10 06:23:08;;;;;;;14.75;5.47;;;13.10;96.40;;;;;;5082596;28;20208;-86
2023/10/10 06:25:37;;;;;;;14.75;4.95;;;13.10;96.00;;;;;;5080371;28;20561;-86
2023/10/10 06:28:18;;;;;;;16.00;4.85;;;13.20;95.90;;;;;;5078524;28;20244;-86
2023/10/10 06:30:46;;;;;;;16.90;5.43;;;13.30;95.40;;;;;;5090604;28;20247;-86
2023/10/10 06:33:15;;;;;;;15.02;5.30;;;13.40;95.20;;;;;;5088039;28;20193;-86
2023/10/10 06:35:52;;;;;;;11.68;5.32;;;13.30;95.20;;;;;;5092098;28;20641;-86
2023/10/10 06:38:24;;;;;;;15.93;4.97;;;13.40;95.30;;;;;;5083809;28;20220;-86
2023/10/10 06:40:55;;;;;;;16.98;5.22;;;13.40;95.30;;;;;;5087633;28;20259;-86
2023/10/10 06:43:24;;;;;;;17.60;5.55;;;13.40;95.30;;;;;;5093025;28;20277;-86
2023/10/10 06:45:54;;;;;;;13.80;5.63;;;13.30;95.60;;;;;;5082004;28;20944;-86
2023/10/10 06:48:22;;;;;;;13.82;5.28;;;13.40;95.70;;;;;;5081420;28;20255;-87
2023/10/10 06:50:50;;;;;;;13.00;6.00;;;13.40;95.90;;;;;;5085941;28;20683;-86
2023/10/10 06:53:34;;;;;;;14.07;5.65;;;13.40;95.90;;;;;;5084131;28;20197;-86
2023/10/10 06:56:14;;;;;;;12.98;5.35;;;13.50;95.80;;;;;;5092035;28;20200;-86
2023/10/10 06:58:44;;;;;;;19.50;6.60;;;13.60;95.50;;;;;;5080355;28;20201;-87
2023/10/10 07:01:12;;;;;;;18.13;6.20;;;13.70;95.10;;;;;;5086038;28;20200;-87
2023/10/10 07:03:46;;;;;;;17.17;6.10;;;13.80;95.10;;;;;;5081202;28;20216;-86
2023/10/10 07:06:13;;;;;;;20.83;6.07;;;13.80;95.20;;;;;;5073689;28;20672;-86
2023/10/10 07:08:41;;;;;;;14.85;5.38;;;13.80;95.30;;;;;;5084713;28;20256;-86
2023/10/10 07:11:09;;;;;;;18.40;5.78;;;13.90;95.30;;;;;;5084235;28;20205;-87
2023/10/10 07:13:43;;;;;;;17.65;5.75;;;13.90;95.20;;;;;;5090707;28;20643;-87
2023/10/10 07:16:16;;;;;;;16.88;5.80;;;13.90;95.20;;;;;;5091641;28;20273;-86
2023/10/10 07:18:43;;;;;;;15.98;5.15;;;14.00;95.20;;;;;;5086089;28;20201;-86
2023/10/10 07:21:26;;;;;;;27.30;5.88;;;14.10;95.00;;;;;;5082411;28;20197;-86
2023/10/10 07:24:05;;;;;;;15.40;5.63;;;14.30;94.70;;;;;;5092521;28;20200;-87
2023/10/10 07:26:41;;;;;;;12.15;4.35;;;14.30;94.40;;;;;;5085320;28;20193;-87
2023/10/10 07:31:53;;;;;;;11.48;4.72;;;14.60;94.00;;;;;;5083864;28;20208;-86
2023/10/10 07:34:34;;;;;;;9.88;4.10;;;14.80;93.60;;;;;;5093746;28;20208;-87
2023/10/10 07:37:07;;;;;;;9.93;3.97;;;14.90;93.20;;;;;;5093112;28;20207;-87
2023/10/10 07:39:36;;;;;;;13.55;4.43;;;15.10;92.80;;;;;;5073957;28;20212;-86
2023/10/10 07:42:08;;;;;;;12.43;4.90;;;15.20;92.40;;;;;;5085361;28;20193;-86
2023/10/10 07:44:36;;;;;;;18.45;4.90;;;15.30;92.10;;;;;;5084446;28;20185;-87
2023/10/10 07:47:26;;;;;;;12.60;4.47;;;15.40;91.60;;;;;;5088223;28;20197;-87
2023/10/10 07:49:53;;;;;;;12.60;4.30;;;15.50;91.60;;;;;;5085749;28;20207;-87
2023/10/10 07:52:21;;;;;;;14.93;4.45;;;15.70;91.40;;;;;;5090355;28;20248;-87
2023/10/10 07:54:51;;;;;;;15.07;4.90;;;15.80;91.00;;;;;;5082257;28;20197;-87
2023/10/10 07:57:22;;;;;;;15.93;5.10;;;15.90;90.30;;;;;;5082588;28;20242;-86
2023/10/10 07:59:54;;;;;;;18.92;5.10;;;16.10;90.10;;;;;;5083072;28;20201;-87
2023/10/10 08:02:31;;;;;;;14.23;4.90;;;16.20;88.90;;;;;;5085725;28;20243;-87
2023/10/10 08:05:01;;;;;;;13.50;4.80;;;16.40;87.90;;;;;;5090105;28;20555;-87
2023/10/10 08:07:28;;;;;;;8.95;4.40;;;16.50;86.50;;;;;;5086546;28;20285;-87
2023/10/10 08:12:36;;;;;;;13.27;4.25;;;16.80;84.30;;;;;;5090459;28;20196;-87
2023/10/10 08:15:18;;;;;;;19.45;5.28;;;17.00;83.20;;;;;;5081403;28;20539;-87
2023/10/10 08:17:52;;;;;;;13.73;4.57;;;17.10;78.80;;;;;;5082885;28;20830;-86
2023/10/10 08:21:07;;;;;;;8.68;4.05;;;17.30;78.90;;;;;;5108168;27;20665;-87
2023/10/10 08:23:24;;;;;;;12.85;4.82;;;17.40;79.00;;;;;;5083706;28;20194;-87
2023/10/10 08:25:51;;;;;;;19.30;5.15;;;17.60;75.60;;;;;;5077942;28;20232;-87
2023/10/10 08:28:18;;;;;;;16.50;5.00;;;17.80;73.00;;;;;;5084250;28;20232;-87
2023/10/10 08:30:45;;;;;;;12.50;4.30;;;17.90;65.50;;;;;;5083278;28;20571;-87
2023/10/10 08:33:13;;;;;;;16.88;5.22;;;18.10;62.50;;;;;;5081521;28;20284;-87
2023/10/10 08:35:42;;;;;;;19.95;5.00;;;18.40;57.70;;;;;;5085719;28;20207;-87
2023/10/10 08:38:09;;;;;;;11.10;4.53;;;18.60;54.70;;;;;;5080105;28;20711;-88
2023/10/10 08:40:40;;;;;;;13.95;4.90;;;18.70;55.30;;;;;;5087222;28;20204;-87
2023/10/10 08:43:09;;;;;;;16.35;5.15;;;18.80;54.80;;;;;;5081914;28;20275;-87
2023/10/10 08:45:43;;;;;;;12.43;4.47;;;18.90;53.80;;;;;;5080677;28;20261;-87
2023/10/10 08:48:13;;;;;;;12.50;4.40;;;19.10;50.00;;;;;;5084995;28;20204;-87
2023/10/10 08:50:41;;;;;;;21.02;5.65;;;19.30;47.80;;;;;;5085738;28;20331;-87
2023/10/10 08:53:11;;;;;;;17.98;5.68;;;19.60;41.60;;;;;;5073305;28;20193;-87
2023/10/10 08:55:38;;;;;;;27.17;5.53;;;19.70;41.10;;;;;;5084105;28;20258;-86
2023/10/10 08:58:07;;;;;;;21.13;5.47;;;19.90;43.20;;;;;;5088525;28;20199;-87
2023/10/10 09:00:35;;;;;;;19.73;5.35;;;20.40;38.50;;;;;;5087219;28;20201;-87
2023/10/10 09:03:02;;;;;;;21.48;6.25;;;20.90;33.80;;;;;;5086916;28;20200;-87
2023/10/10 09:05:32;;;;;;;25.75;5.82;;;21.20;33.10;;;;;;5091049;28;20200;-87
2023/10/10 09:08:06;;;;;;;16.58;5.53;;;22.40;26.00;;;;;;5085207;28;20202;-85
2023/10/10 09:10:39;;;;;;;15.40;5.45;;;23.70;21.20;;;;;;5087672;28;20203;-87
2023/10/10 09:13:07;;;;;;;19.35;5.55;;;24.60;19.70;;;;;;5089543;28;20199;-87
2023/10/10 09:15:35;;;;;;;16.67;5.85;;;25.50;16.00;;;;;;5091460;28;20283;-88
2023/10/10 09:18:14;;;;;;;18.48;6.45;;;27.00;14.10;;;;;;5088599;28;21641;-88
2023/10/10 09:20:44;;;;;;;15.30;5.57;;;28.30;9.10;;;;;;5084029;28;20201;-88
2023/10/10 09:23:22;;;;;;;17.35;6.05;;;29.00;8.10;;;;;;5084613;28;20198;-88
2023/10/10 09:25:57;;;;;;;18.38;5.75;;;29.80;6.90;;;;;;5084633;28;20192;-88
2023/10/10 09:28:30;;;;;;;17.42;6.45;;;29.40;7.30;;;;;;5087458;28;20269;-89
2023/10/10 09:31:00;;;;;;;14.77;6.00;;;29.20;6.70;;;;;;5084826;28;20192;-88
2023/10/10 09:33:29;;;;;;;23.52;6.93;;;29.00;7.70;;;;;;5092470;28;20203;-88
2023/10/10 09:36:08;;;;;;;17.35;6.13;;;29.00;7.80;;;;;;5077181;28;20205;-88
2023/10/10 09:38:36;;;;;;;13.07;5.97;;;29.40;7.10;;;;;;5089138;28;20200;-88
2023/10/10 09:41:14;;;;;;;13.00;5.97;;;29.90;6.30;;;;;;5078273;28;20785;-88
2023/10/10 09:44:00;;;;;;;16.50;6.20;;;29.60;6.80;;;;;;5086576;28;20189;-88
2023/10/10 09:46:36;;;;;;;16.67;6.63;;;29.10;5.80;;;;;;5071660;28;20224;-88
2023/10/10 09:49:29;;;;;;;24.38;7.22;;;29.20;6.60;;;;;;5095225;28;20244;-88
2023/10/10 09:54:44;;;;;;;16.92;6.22;;;29.50;6.00;;;;;;5078883;28;20212;-88
2023/10/10 09:57:13;;;;;;;13.55;6.80;;;30.30;3.60;;;;;;5086684;28;20286;-88
2023/10/10 09:59:42;;;;;;;15.88;6.18;;;29.70;4.90;;;;;;5088505;28;20284;-88
2023/10/10 10:02:14;;;;;;;15.95;6.13;;;29.20;5.60;;;;;;5078751;28;20222;-88
2023/10/10 10:04:44;;;;;;;18.73;6.65;;;28.70;6.10;;;;;;5082238;28;20196;-88
2023/10/10 10:07:41;;;;;;;18.85;6.28;;;28.30;6.60;;;;;;5078832;28;20211;-89
2023/10/10 10:10:33;;;;;;;12.73;6.28;;;28.70;7.10;;;;;;5087940;28;20204;-88
2023/10/10 10:13:19;;;;;;;13.20;6.35;;;29.60;4.70;;;;;;5088057;28;20609;-88
2023/10/10 10:16:09;;;;;;;16.52;6.28;;;29.00;6.50;;;;;;5078796;28;20254;-88
2023/10/10 10:18:45;;;;;;;10.00;5.63;;;28.20;7.40;;;;;;5081735;28;20209;-88
2023/10/10 10:21:18;;;;;;;14.73;6.45;;;28.80;5.40;;;;;;5079210;28;20660;-88
2023/10/10 10:23:56;;;;;;;17.95;7.00;;;28.80;6.40;;;;;;5091777;28;20197;-88
2023/10/10 10:26:41;;;;;;;17.05;6.55;;;29.00;6.50;;;;;;5089211;28;20252;-88
2023/10/10 10:29:15;;;;;;;15.57;6.13;;;28.10;8.70;;;;;;5080886;28;20692;-88
2023/10/10 10:31:49;;;;;;;13.10;6.45;;;27.50;10.30;;;;;;5088913;28;20664;-88
2023/10/10 10:34:23;;;;;;;13.15;6.32;;;27.30;9.50;;;;;;5091722;28;20187;-88
2023/10/10 10:36:55;;;;;;;11.98;5.82;;;27.60;7.30;;;;;;5085181;28;20193;-88
2023/10/10 10:39:25;;;;;;;14.48;6.50;;;28.40;6.20;;;;;;5088593;28;20205;-88
2023/10/10 10:41:53;;;;;;;14.43;6.05;;;28.20;6.20;;;;;;5091183;28;20250;-88
2023/10/10 10:44:44;;;;;;;13.98;6.45;;;28.20;5.60;;;;;;5086193;28;20196;-88
2023/10/10 10:47:34;;;;;;;11.55;6.65;;;28.50;4.80;;;;;;5087015;28;20196;-88
2023/10/10 10:50:02;;;;;;;19.63;8.98;;;28.20;5.20;;;;;;5088122;28;20228;-88
2023/10/10 10:52:44;;;;;;;17.83;6.90;;;28.30;5.90;;;;;;5080348;28;20227;-88
2023/10/10 10:55:22;;;;;;;15.00;5.70;;;27.90;6.00;;;;;;5088963;28;20287;-87
2023/10/10 10:57:49;;;;;;;19.67;6.32;;;27.70;5.90;;;;;;5085607;28;20193;-87
2023/10/10 11:00:28;;;;;;;19.17;6.50;;;27.20;7.70;;;;;;5083002;28;20201;-87
2023/10/10 11:02:59;;;;;;;16.88;5.93;;;26.30;8.20;;;;;;5083362;28;20193;-87
2023/10/10 11:05:27;;;;;;;11.25;6.03;;;26.00;9.00;;;;;;5086631;28;20710;-87
2023/10/10 11:08:10;;;;;;;17.02;6.00;;;25.70;10.30;;;;;;5086187;28;20219;-88
2023/10/10 11:10:46;;;;;;;17.33;6.82;;;25.50;10.10;;;;;;5089490;28;20657;-85
2023/10/10 11:13:14;;;;;;;14.25;5.75;;;25.20;8.70;;;;;;5091319;28;20207;-85
2023/10/10 11:15:40;;;;;;;16.77;6.00;;;25.00;11.60;;;;;;5090880;28;20192;-85
2023/10/10 11:18:10;;;;;;;16.67;5.60;;;24.90;11.10;;;;;;5086830;28;20196;-85
2023/10/10 11:23:18;;;;;;;14.88;5.80;;;25.20;8.10;;;;;;5085927;28;20448;-87
2023/10/10 11:25:58;;;;;;;15.82;5.65;;;25.00;8.40;;;;;;5091977;28;20196;-87
2023/10/10 11:28:37;;;;;;;13.45;5.65;;;25.10;8.60;;;;;;5075079;28;20224;-90
2023/10/10 11:31:07;;;;;;;16.65;5.38;;;25.00;9.10;;;;;;5074541;28;20188;-88
2023/10/10 11:33:48;;;;;;;16.38;5.38;;;24.80;11.00;;;;;;5081409;28;20199;-88
2023/10/10 11:36:23;;;;;;;13.05;4.95;;;24.70;9.10;;;;;;5085151;28;20594;-89
2023/10/10 11:38:55;;;;;;;11.25;5.10;;;24.50;8.70;;;;;;5068407;28;20201;-87
2023/10/10 11:41:29;;;;;;;13.75;4.72;;;24.50;9.30;;;;;;5088208;28;20200;-87
2023/10/10 11:44:01;;;;;;;13.88;5.32;;;24.40;9.30;;;;;;5088652;28;20205;-87
2023/10/10 11:46:28;;;;;;;15.60;5.63;;;24.40;9.80;;;;;;5089053;28;20272;-87
2023/10/10 11:48:55;;;;;;;11.43;4.93;;;24.40;9.50;;;;;;5080910;28;20664;-87
2023/10/10 11:51:34;;;;;;;17.02;5.45;;;24.40;9.70;;;;;;5086892;28;20220;-87
2023/10/10 11:54:00;;;;;;;15.88;5.40;;;24.60;9.40;;;;;;5094826;28;20188;-87
2023/10/10 11:56:34;;;;;;;12.55;5.22;;;24.50;9.60;;;;;;5087166;28;20674;-86
2023/10/10 11:59:01;;;;;;;17.92;5.35;;;24.50;9.10;;;;;;5090586;28;20197;-86
2023/10/10 12:04:20;;;;;;;17.55;6.07;;;24.50;9.90;;;;;;5084491;28;20276;-86
2023/10/10 12:06:47;;;;;;;16.05;5.38;;;24.60;9.30;;;;;;5082926;28;20280;-85
2023/10/10 12:09:18;;;;;;;11.48;5.20;;;24.50;10.80;;;;;;5090724;28;20236;-86
2023/10/10 12:11:47;;;;;;;13.20;5.20;;;24.50;10.30;;;;;;5080675;28;20206;-86
2023/10/10 12:14:19;;;;;;;15.45;5.20;;;24.40;10.20;;;;;;5088798;28;20204;-85
2023/10/10 12:16:50;;;;;;;14.90;5.30;;;24.30;10.20;;;;;;5082121;28;20245;-85
2023/10/10 12:19:17;;;;;;;14.45;5.30;;;24.20;9.70;;;;;;5096925;28;20197;-84
2023/10/10 12:21:43;;;;;;;10.63;4.93;;;24.10;10.10;;;;;;5087019;28;20209;-85
2023/10/10 12:24:10;;;;;;;10.82;4.82;;;24.20;10.60;;;;;;5093102;28;20671;-85
2023/10/10 12:26:41;;;;;;;10.95;4.82;;;24.30;10.20;;;;;;5084728;28;20193;-85
2023/10/10 12:29:11;;;;;;;12.23;4.60;;;24.30;9.90;;;;;;5082837;28;20680;-85
2023/10/10 12:31:38;;;;;;;12.55;5.03;;;24.30;9.60;;;;;;5092591;28;20553;-85
2023/10/10 12:34:09;;;;;;;14.40;4.80;;;24.20;10.50;;;;;;5093535;28;20204;-85
2023/10/10 12:36:36;;;;;;;13.73;4.53;;;24.00;10.30;;;;;;5088196;28;20200;-85
2023/10/10 12:39:14;;;;;;;15.27;4.90;;;24.10;9.70;;;;;;5087532;28;20653;-84
2023/10/10 12:41:45;;;;;;;10.95;4.63;;;24.10;9.60;;;;;;5098075;28;20611;-85
2023/10/10 12:44:14;;;;;;;14.30;5.07;;;24.10;9.60;;;;;;5085302;28;20220;-85
2023/10/10 12:46:41;;;;;;;13.82;5.63;;;24.00;9.80;;;;;;5092616;28;20637;-85
2023/10/10 12:49:11;;;;;;;12.82;5.30;;;24.10;10.40;;;;;;5077449;28;20197;-85
2023/10/10 12:51:44;;;;;;;10.45;4.65;;;24.10;10.20;;;;;;5083585;28;20212;-85
2023/10/10 12:54:13;;;;;;;11.20;4.50;;;24.10;10.50;;;;;;5088035;28;20279;-85
2023/10/10 12:56:48;;;;;;;13.23;4.45;;;24.10;9.20;;;;;;5076645;28;20243;-85
2023/10/10 12:59:18;;;;;;;12.02;5.00;;;24.10;10.10;;;;;;5093553;28;20256;-85
2023/10/10 13:01:45;;;;;;;15.40;5.03;;;24.10;10.40;;;;;;5096457;28;20328;-85
2023/10/10 13:04:17;;;;;;;15.32;5.03;;;24.10;11.30;;;;;;5095874;28;20211;-84
2023/10/10 13:06:51;;;;;;;17.48;5.45;;;24.10;11.40;;;;;;5084574;28;20201;-85
2023/10/10 13:09:19;;;;;;;10.95;4.80;;;24.10;11.10;;;;;;5082820;28;20560;-85
2023/10/10 13:11:46;;;;;;;13.40;4.72;;;24.00;10.80;;;;;;5091650;28;20254;-85
2023/10/10 13:14:18;;;;;;;16.00;5.53;;;24.00;10.50;;;;;;5077783;28;20201;-85
2023/10/10 13:17:13;;;;;;;15.80;5.30;;;24.10;10.90;;;;;;5083280;28;20433;-85
2023/10/10 13:19:41;;;;;;;15.18;5.07;;;24.10;11.70;;;;;;5085958;28;20204;-85
2023/10/10 13:22:08;;;;;;;12.18;4.30;;;24.10;11.30;;;;;;5088332;28;20199;-85
2023/10/10 13:24:35;;;;;;;12.10;4.63;;;24.10;12.20;;;;;;5097840;28;21815;-85
2023/10/10 13:27:06;;;;;;;12.98;4.57;;;24.10;12.00;;;;;;5078313;28;20229;-83
2023/10/10 13:29:33;;;;;;;16.30;5.00;;;24.10;11.70;;;;;;5079297;28;20236;-85
2023/10/10 13:32:04;;;;;;;15.40;5.07;;;24.20;12.00;;;;;;5084226;28;20235;-86
2023/10/10 13:34:31;;;;;;;14.10;4.70;;;24.20;11.90;;;;;;5083636;28;20642;-85
2023/10/10 13:36:58;;;;;;;15.60;4.72;;;24.20;11.20;;;;;;5086901;28;20209;-87
2023/10/10 13:39:40;;;;;;;19.23;5.13;;;24.10;12.00;;;;;;5063513;28;20197;-85
2023/10/10 13:42:07;;;;;;;11.05;4.07;;;24.10;13.60;;;;;;5092947;28;20715;-87
2023/10/10 13:44:34;;;;;;;14.95;5.22;;;24.10;12.10;;;;;;5094709;28;20230;-86
2023/10/10 13:47:02;;;;;;;13.50;4.82;;;24.00;12.90;;;;;;5091540;28;20196;-87
2023/10/10 13:49:29;;;;;;;12.88;4.70;;;24.00;13.70;;;;;;5085816;28;20208;-86
2023/10/10 13:51:56;;;;;;;12.55;4.25;;;23.80;13.40;;;;;;5091330;28;20217;-85
2023/10/10 13:54:23;;;;;;;13.63;5.10;;;23.90;13.50;;;;;;5084877;28;20190;-86
2023/10/10 13:56:50;;;;;;;16.75;5.03;;;23.80;13.40;;;;;;5091400;28;20207;-85
2023/10/10 13:59:17;;;;;;;15.55;4.80;;;23.80;13.40;;;;;;5080975;28;20246;-86
2023/10/10 14:01:47;;;;;;;19.08;5.22;;;23.60;13.30;;;;;;5083858;28;20265;-85
2023/10/10 14:04:24;;;;;;;22.38;5.07;;;23.50;13.20;;;;;;5087256;28;20205;-85
2023/10/10 14:06:53;;;;;;;12.32;4.85;;;23.50;14.10;;;;;;5088321;28;20196;-87
2023/10/10 14:09:25;;;;;;;18.95;4.75;;;23.40;13.20;;;;;;5088768;28;20192;-86
2023/10/10 14:11:53;;;;;;;10.15;4.55;;;23.30;13.60;;;;;;5092543;28;20650;-86
2023/10/10 14:14:19;;;;;;;10.90;4.30;;;23.30;14.30;;;;;;5088550;28;20216;-86
2023/10/10 14:16:46;;;;;;;14.25;5.05;;;23.30;14.20;;;;;;5089684;28;20205;-85
2023/10/10 14:19:15;;;;;;;18.55;5.05;;;23.20;14.10;;;;;;5088015;28;20533;-85
2023/10/10 14:21:41;;;;;;;14.02;4.63;;;23.20;14.70;;;;;;5088625;28;20209;-86
2023/10/10 14:24:08;;;;;;;14.80;4.40;;;23.10;14.80;;;;;;5093794;28;20700;-86
2023/10/10 14:26:36;;;;;;;16.25;4.60;;;23.10;14.90;;;;;;5089631;28;20291;-85
2023/10/10 14:29:06;;;;;;;16.95;5.43;;;23.20;13.80;;;;;;5093609;28;20209;-85
2023/10/10 14:31:34;;;;;;;16.63;4.63;;;23.20;13.40;;;;;;5085982;28;20205;-87
2023/10/10 14:34:04;;;;;;;10.50;4.35;;;23.20;14.70;;;;;;5088784;28;20192;-85
2023/10/10 14:36:39;;;;;;;15.73;4.57;;;23.10;13.80;;;;;;5084128;28;20368;-88
2023/10/10 14:39:08;;;;;;;18.98;5.35;;;23.10;14.40;;;;;;5087535;28;20558;-88
2023/10/10 14:41:36;;;;;;;10.52;4.80;;;23.10;13.80;;;;;;5089780;28;20204;-87
2023/10/10 14:44:03;;;;;;;15.13;5.00;;;23.10;13.50;;;;;;5085346;28;20203;-86
2023/10/10 14:46:32;;;;;;;14.18;4.72;;;23.10;13.20;;;;;;5089430;28;20608;-88
2023/10/10 14:49:05;;;;;;;17.98;4.75;;;23.10;13.80;;;;;;5119385;27;20204;-87
2023/10/10 14:51:34;;;;;;;17.02;4.78;;;23.00;14.20;;;;;;5085047;28;20305;-87
2023/10/10 14:54:06;;;;;;;18.58;4.82;;;23.00;12.90;;;;;;5087524;28;20557;-87
2023/10/10 14:56:35;;;;;;;13.93;4.82;;;23.00;12.90;;;;;;5092967;28;20560;-87
2023/10/10 14:59:05;;;;;;;13.57;4.10;;;22.90;12.90;;;;;;5085314;28;20192;-86
2023/10/10 15:01:34;;;;;;;17.23;4.57;;;22.90;13.40;;;;;;5083756;28;20197;-86
2023/10/10 15:04:04;;;;;;;16.77;3.97;;;22.80;12.80;;;;;;5091707;28;20214;-87
2023/10/10 15:06:33;;;;;;;14.68;4.50;;;22.70;13.40;;;;;;5089703;28;20209;-86